Latest Coastal Weather Observations for Taree Airport

IDN60701

Issued at 7:31 pm EST Monday 6 July 2015 (issued every 10 minutes, with the page automatically refreshed every 10 minutes)

About coastal observations | Map of coastal stations | Coastal observations for NSW | Marine services | Other Formats
Station Details ID: 060141 Name: TAREE AIRPORT AWS Lat: -31.89 Lon: 152.51 Height: 8.0 m
Data from the previous 72 hours. | See also: Recent months at Taree Airport
Date/Time
EST
Temp

°C
Wind Pressure Rain
since 9am
mm
Weather Cloud Vis
km
Sea
Height
m
Swell
Dir
 
Speed
knots
Gust
knots
hPa Trend Height
m
Period
s
Dir
06/07:30pm 12.3 W 5 6 1015.1 - 0.0 - - 10 - - - -
06/07:00pm 14.4 WNW 6 8 1015.0 - 0.0 - - 10 - - - -
06/06:30pm 15.3 NW 6 8 1014.6 - 0.0 - - 10 - - - -
06/06:00pm 15.1 W 1 4 1014.3 - 0.0 - - 10 - - - -
06/05:30pm 13.1 NW 2 4 1013.8 - 0.0 - - 10 - - - -
06/05:00pm 16.5 WNW 7 9 1013.6 - 0.0 - - 10 - - - -
06/04:30pm 18.1 WNW 7 9 1013.1 - 0.0 - - 10 - - - -
06/04:00pm 19.2 WNW 6 8 1012.9 - 0.0 - - 10 - - - -
06/03:30pm 19.5 WNW 10 15 1012.8 - 0.0 - - 10 - - - -
06/03:00pm 20.0 WNW 9 17 1012.7 - 0.0 - - 10 - - - -
06/02:30pm 20.0 WNW 11 15 1012.8 - 0.0 - - 10 - - - -
06/02:00pm 20.1 W 7 10 1012.7 - 0.0 - - 10 - - - -
06/01:30pm 19.8 WSW 8 11 1012.8 - 0.0 - - 10 - - - -
06/01:00pm 19.8 WNW 10 14 1013.2 - 0.0 - - 10 - - - -
06/12:30pm 18.5 WSW 6 10 1013.8 - 0.0 - - 10 - - - -
06/12:00pm 18.1 WSW 8 11 1014.3 - 0.0 - - 10 - - - -
06/11:30am 17.2 W 6 8 1015.0 - 0.0 - - 10 - - - -
06/11:00am 16.4 W 6 9 1015.7 - 0.0 - - 10 - - - -
06/10:30am 15.9 WSW 5 7 1016.0 - 0.0 - - 10 - - - -
06/10:00am 15.4 WNW 6 8 1016.3 - 0.0 - - 10 - - - -
06/09:30am 11.3 WNW 5 6 1016.7 - 0.0 - - 10 - - - -
06/09:00am 9.6 W 4 5 1016.8 - 0.0 - - 10 - - - -
06/08:30am 7.9 WNW 4 6 1016.9 - 0.0 - - 10 - - - -
06/08:00am 7.5 WNW 4 6 1016.9 - 0.0 - - 10 - - - -
06/07:30am 6.8 W 9 11 1016.9 - 0.0 - - 10 - - - -
06/07:00am 6.3 W 8 9 1016.7 - 0.0 - - 10 - - - -
06/06:30am 6.1 NW 5 6 1016.6 - 0.0 - - 10 - - - -
06/06:00am 3.8 NNW 3 4 1016.4 - 0.0 - - 10 - - - -
06/05:30am 6.0 CALM 0 0 1016.4 - 0.0 - - 10 - - - -
06/05:00am 6.5 W 6 8 1016.4 - 0.0 - - 10 - - - -
06/04:30am 6.8 WNW 6 7 1016.6 - 0.0 - - 10 - - - -
06/04:00am 4.5 NW 2 4 1016.8 - 0.0 - - 10 - - - -
06/03:30am 4.7 CALM 0 4 1017.1 - 0.0 - - 10 - - - -
06/03:00am 4.4 CALM 0 0 1017.3 - 0.0 - - 10 - - - -
06/02:30am 5.3 CALM 0 0 1017.5 - 0.0 - - 10 - - - -
06/02:00am 5.6 CALM 0 0 1017.8 - 0.0 - - 10 - - - -
06/01:30am 6.2 W 4 5 1018.0 - 0.0 - - 10 - - - -
06/01:00am 4.3 NNW 1 3 1018.0 - 0.0 - - 10 - - - -
06/12:30am 5.7 WNW 2 3 1018.1 - 0.0 - - 10 - - - -
 
Date/Time
EST
Temp

°C
Wind Pressure Rain
since 9am
mm
Weather Cloud Vis
km
Sea
Height
m
Swell
Dir
 
Speed
knots
Gust
knots
hPa Trend Height
m
Period
s
Dir
05/11:30pm 6.4 WSW 4 5 1018.6 - 0.0 - - 10 - - - -
05/11:00pm 6.5 W 2 4 1019.0 - 0.0 - - 10 - - - -
05/10:30pm 7.2 WNW 1 5 1019.0 - 0.0 - - 10 - - - -
05/10:00pm 7.0 CALM 0 0 1019.1 - 0.0 - - 10 - - - -
05/09:30pm 6.4 CALM 0 0 1019.2 - 0.0 - - 10 - - - -
05/09:00pm 7.5 CALM 0 0 1019.3 - 0.0 - - 10 - - - -
05/08:30pm 7.9 CALM 0 0 1019.4 - 0.0 - - 10 - - - -
05/08:00pm 8.2 CALM 0 0 1019.5 - 0.0 - - 10 - - - -
05/07:30pm 9.1 W 3 4 1019.5 - 0.0 - - 10 - - - -
05/07:00pm 10.2 CALM 0 0 1019.5 - 0.0 - - 10 - - - -
05/06:30pm 10.8 CALM 0 0 1019.2 - 0.0 - - 10 - - - -
05/06:00pm 10.7 CALM 0 0 1019.1 - 0.0 - - 10 - - - -
05/05:30pm 12.3 CALM 0 0 1019.1 - 0.0 - - 10 - - - -
05/05:00pm 13.2 E 3 4 1018.8 - 0.0 - - 10 - - - -
05/04:30pm 15.2 ESE 4 5 1018.5 - 0.0 - - 10 - - - -
05/04:00pm 16.5 E 6 7 1018.3 - 0.0 - - 10 - - - -
05/03:30pm 17.3 E 5 6 1018.4 - 0.0 - - 10 - - - -
05/03:00pm 17.6 ENE 5 7 1018.5 - 0.0 - - 10 - - - -
05/02:30pm 17.8 NE 5 7 1018.7 - 0.0 - - 10 - - - -
05/02:00pm 18.2 N 3 8 1018.9 - 0.0 - - 10 - - - -
05/01:30pm 18.0 NNE 4 6 1019.1 - 0.0 - - 10 - - - -
05/01:00pm 17.5 ESE 4 7 1019.5 - 0.0 - - 10 - - - -
05/12:30pm 17.1 SSE 3 5 1020.0 - 0.0 - - 10 - - - -
05/12:00pm 16.8 SW 4 6 1020.6 - 0.0 - - 10 - - - -
05/11:30am 15.6 SSW 3 5 1020.9 - 0.0 - - 10 - - - -
05/11:00am 15.8 WSW 4 5 1021.3 - 0.0 - - 10 - - - -
05/10:30am 14.1 WNW 4 6 1021.7 - 0.0 - - 10 - - - -
05/10:00am 12.8 NNW 3 4 1021.7 - 0.0 - - 10 - - - -
05/09:30am 11.3 W 5 6 1022.0 - 0.0 - - 10 - - - -
05/09:00am 9.9 W 6 7 1022.2 - 0.0 - - 10 - - - -
05/08:30am 8.2 W 7 8 1022.1 - 0.0 - - 10 - - - -
05/08:00am 6.9 W 5 7 1022.2 - 0.0 - - 10 - - - -
05/07:30am 6.8 W 5 7 1021.9 - 0.0 - - 10 - - - -
05/07:00am 5.5 NNW 4 5 1021.8 - 0.0 - - 10 - - - -
05/06:30am 5.1 CALM 0 0 1021.4 - 0.0 - - 10 - - - -
05/06:00am 5.3 NNW 2 4 1021.3 - 0.0 - Mostly cloudy 10 - - - -
05/05:30am 6.6 WNW 1 5 1021.2 - 0.0 - - 10 - - - -
05/05:00am 6.5 WSW 5 6 1020.9 - 0.0 - - 10 - - - -
05/04:30am 6.6 WNW 2 5 1021.1 - 0.0 - - 10 - - - -
05/04:00am 4.8 N 2 4 1020.7 - 0.0 - - 10 - - - -
05/03:30am 7.1 W 5 6 1021.0 - 0.0 - - 10 - - - -
05/03:00am 6.6 WNW 2 5 1021.1 - 0.0 - Mostly clear 10 - - - -
05/02:30am 5.6 CALM 0 3 1021.1 - 0.0 - - 10 - - - -
05/02:00am 8.1 W 4 4 1021.1 - 0.0 - - 10 - - - -
05/01:30am 7.8 CALM 0 1 1021.0 - 0.0 - - 10 - - - -
05/01:00am 8.4 W 4 5 1021.1 - 0.0 - - 10 - - - -
05/12:30am 8.4 W 5 6 1021.0 - 0.0 - - 10 - - - -
05/12:00am 8.4 W 4 5 1021.2 - 0.0 - Cloudy 10 - - - -
 
Date/Time
EST
Temp

°C
Wind Pressure Rain
since 9am
mm
Weather Cloud Vis
km
Sea
Height
m
Swell
Dir
 
Speed
knots
Gust
knots
hPa Trend Height
m
Period
s
Dir
04/11:30pm 8.4 WSW 5 6 1021.2 - 0.0 - - 10 - - - -
04/11:00pm 7.8 WSW 4 5 1021.5 - 0.0 - - 10 - - - -
04/10:30pm 7.5 CALM 0 0 1021.6 - 0.0 - - 10 - - - -
04/10:00pm 8.0 CALM 0 0 1021.5 - 0.0 - - 10 - - - -
04/09:30pm 8.2 CALM 0 0 1021.5 - 0.0 - - 10 - - - -
04/09:00pm 7.8 CALM 0 0 1021.6 - 0.0 - - 10 - - - -
04/08:30pm 8.7 SSW 1 4 1021.6 - 0.0 - - 10 - - - -
04/08:00pm 9.3 CALM 0 4 1021.6 - 0.0 - - 10 - - - -
04/07:30pm 9.7 W 4 5 1021.5 - 0.0 - - 10 - - - -
04/07:00pm 10.4 WSW 4 5 1021.2 - 0.0 - - 10 - - - -
04/06:30pm 12.7 SSW 3 4 1021.0 - 0.0 - - 10 - - - -
04/06:00pm 13.4 CALM 0 0 1020.6 - 0.0 - - 10 - - - -
04/05:30pm 14.3 SSW 2 4 1020.3 - 0.0 - - 10 - - - -
04/05:00pm 15.2 SSE 3 8 1019.8 - 0.0 - - 10 - - - -
04/04:30pm 16.4 SSE 4 6 1019.4 - 0.0 - - 10 - - - -
04/04:00pm 19.7 W 4 4 1019.3 - 0.0 - - 10 - - - -
04/03:30pm 19.7 W 6 10 1019.1 - 0.0 - - 10 - - - -
04/03:00pm 20.2 WNW 7 10 1019.0 - 0.0 - - 10 - - - -
04/02:30pm 19.6 WNW 8 12 1019.0 - 0.0 - - 10 - - - -
04/02:00pm 19.7 W 6 9 1019.1 - 0.0 - - 10 - - - -
04/01:30pm 19.6 WNW 9 15 1019.3 - 0.0 - - 10 - - - -
04/01:00pm 19.0 W 6 11 1019.8 - 0.0 - - 10 - - - -
04/12:30pm 19.1 NW 7 10 1020.4 - 0.0 - - 10 - - - -
04/12:00pm 18.2 NW 9 13 1020.9 - 0.0 - - 10 - - - -
04/11:30am 18.0 WNW 2 5 1021.6 - 0.0 - - 10 - - - -
04/11:00am 16.5 SE 2 4 1022.0 - 0.0 - - 10 - - - -
04/10:30am 15.7 S 1 4 1022.4 - 0.0 - - 10 - - - -
04/10:00am 15.1 ESE 2 4 1022.7 - 0.0 - - 10 - - - -
04/09:30am 13.1 CALM 0 0 1023.0 - 0.0 - - 10 - - - -
04/09:00am 11.2 WSW 4 4 1023.2 - 0.0 - - 10 - - - -
04/08:30am 10.0 NNW 3 4 1023.4 - 0.0 - - 10 - - - -
04/08:00am 8.5 NW 4 5 1023.6 - 0.0 - - 10 - - - -
04/07:30am 7.8 W 4 5 1023.3 - 0.0 - - 10 - - - -
04/07:00am 7.7 W 3 5 1023.1 - 0.0 - - 10 - - - -
04/06:30am 7.5 NNW 3 4 1023.5 - 0.0 - - 10 - - - -
04/06:00am 8.0 W 4 5 1023.1 - 0.0 - Mostly clear 10 - - - -
04/05:30am 8.1 SW 2 5 1023.2 - 0.0 - Partly cloudy 10 - - - -
04/05:00am 7.6 W 2 5 1023.0 - 0.0 - Partly cloudy 10 - - - -
04/04:30am 8.2 CALM 0 0 1022.8 - 0.0 - Partly cloudy 10 - - - -
04/04:00am 8.5 CALM 0 0 1022.6 - 0.0 - - 10 - - - -
04/03:30am 8.8 SW 5 6 1022.7 - 0.0 - Partly cloudy 10 - - - -
04/03:00am 10.4 S 3 6 1023.0 - 0.0 - Mostly cloudy 10 - - - -
04/02:30am 10.7 SSE 1 4 1023.3 - 0.0 - Cloudy 10 - - - -
04/02:00am 11.2 W 5 6 1024.0 - 0.0 - Cloudy 10 - - - -
04/01:30am 11.3 W 4 5 1024.2 - 0.0 - Cloudy 10 - - - -
04/01:00am 11.6 WNW 6 7 1024.1 - 0.0 - Cloudy 10 - - - -
04/12:30am 11.7 NW 5 6 1024.3 - 0.0 - Cloudy 10 - - - -
04/12:00am 12.0 WNW 6 7 1024.4 - 0.0 - Cloudy 10 - - - -
 
Date/Time
EST
Temp

°C
Wind Pressure Rain
since 9am
mm
Weather Cloud Vis
km
Sea
Height
m
Swell
Dir
 
Speed
knots
Gust
knots
hPa Trend Height
m
Period
s
Dir
03/11:30pm 11.9 NW 6 6 1024.6 - 0.0 - Cloudy 10 - - - -
03/11:00pm 11.9 WNW 5 7 1024.5 - 0.0 - Partly cloudy 10 - - - -
03/10:30pm 12.2 W 6 7 1024.6 - 0.0 - Cloudy 10 - - - -
03/10:00pm 12.3 W 5 6 1025.0 - 0.0 - Cloudy 10 - - - -
03/09:30pm 12.5 W 6 8 1024.9 - 0.0 - Cloudy 10 - - - -
03/09:00pm 12.6 WNW 7 9 1025.1 - 0.0 - Mostly cloudy 10 - - - -
03/08:30pm 12.4 WNW 6 8 1025.2 - 0.0 - Partly cloudy 10 - - - -
03/08:00pm 12.5 WNW 6 8 1025.0 - 0.0 - Cloudy 10 - - - -

Other Formats:

Comma delimited format used in spreadsheet applications
http://www.bom.gov.au/fwo/IDN60701/IDN60701.95784.axf

JavaScript Object Notation format (JSON) in row-major order
http://www.bom.gov.au/fwo/IDN60701/IDN60701.95784.json